sensor_id;sensor_type;location;lat;lon;timestamp;temperature;humidity
12874;DHT22;6505;51.114;13.128;2023-04-15T00:00:05;14.90;60.60
12874;DHT22;6505;51.114;13.128;2023-04-15T00:02:45;14.90;60.80
12874;DHT22;6505;51.114;13.128;2023-04-15T00:05:15;14.90;60.70
12874;DHT22;6505;51.114;13.128;2023-04-15T00:07:43;14.90;60.70
12874;DHT22;6505;51.114;13.128;2023-04-15T00:10:12;14.80;60.60
12874;DHT22;6505;51.114;13.128;2023-04-15T00:12:40;14.90;61.00
12874;DHT22;6505;51.114;13.128;2023-04-15T00:15:09;14.90;60.80
12874;DHT22;6505;51.114;13.128;2023-04-15T00:17:38;14.90;60.90
12874;DHT22;6505;51.114;13.128;2023-04-15T00:20:08;14.90;60.80
12874;DHT22;6505;51.114;13.128;2023-04-15T00:22:37;14.90;60.90
12874;DHT22;6505;51.114;13.128;2023-04-15T00:25:05;14.80;60.80
12874;DHT22;6505;51.114;13.128;2023-04-15T00:27:33;14.90;61.00
12874;DHT22;6505;51.114;13.128;2023-04-15T00:30:01;14.80;60.70
12874;DHT22;6505;51.114;13.128;2023-04-15T00:32:30;14.90;60.90
12874;DHT22;6505;51.114;13.128;2023-04-15T00:34:58;14.90;60.90
12874;DHT22;6505;51.114;13.128;2023-04-15T00:37:28;14.80;60.90
12874;DHT22;6505;51.114;13.128;2023-04-15T00:39:56;14.90;60.90
12874;DHT22;6505;51.114;13.128;2023-04-15T00:42:24;14.90;60.90
12874;DHT22;6505;51.114;13.128;2023-04-15T00:44:52;14.80;60.90
12874;DHT22;6505;51.114;13.128;2023-04-15T00:47:21;14.90;61.10
12874;DHT22;6505;51.114;13.128;2023-04-15T00:49:49;14.80;61.00
12874;DHT22;6505;51.114;13.128;2023-04-15T00:52:17;14.90;60.90
12874;DHT22;6505;51.114;13.128;2023-04-15T00:54:46;14.80;60.90
12874;DHT22;6505;51.114;13.128;2023-04-15T00:57:14;14.80;60.90
12874;DHT22;6505;51.114;13.128;2023-04-15T00:59:42;14.90;60.90
12874;DHT22;6505;51.114;13.128;2023-04-15T01:02:11;14.80;60.80
12874;DHT22;6505;51.114;13.128;2023-04-15T01:04:40;14.80;60.90
12874;DHT22;6505;51.114;13.128;2023-04-15T01:07:08;14.80;60.80
12874;DHT22;6505;51.114;13.128;2023-04-15T01:09:36;14.80;60.90
12874;DHT22;6505;51.114;13.128;2023-04-15T01:12:06;14.80;60.80
12874;DHT22;6505;51.114;13.128;2023-04-15T01:14:36;14.90;61.10
12874;DHT22;6505;51.114;13.128;2023-04-15T01:17:05;14.90;61.10
12874;DHT22;6505;51.114;13.128;2023-04-15T01:19:33;14.80;60.80
12874;DHT22;6505;51.114;13.128;2023-04-15T01:22:01;14.80;60.80
12874;DHT22;6505;51.114;13.128;2023-04-15T01:24:31;14.80;60.80
12874;DHT22;6505;51.114;13.128;2023-04-15T01:27:01;14.80;60.90
12874;DHT22;6505;51.114;13.128;2023-04-15T01:29:31;14.80;60.80
12874;DHT22;6505;51.114;13.128;2023-04-15T01:31:59;14.80;60.90
12874;DHT22;6505;51.114;13.128;2023-04-15T01:34:27;14.90;61.00
12874;DHT22;6505;51.114;13.128;2023-04-15T01:36:55;14.90;61.00
12874;DHT22;6505;51.114;13.128;2023-04-15T01:39:23;14.80;60.90
12874;DHT22;6505;51.114;13.128;2023-04-15T01:41:55;14.80;60.90
12874;DHT22;6505;51.114;13.128;2023-04-15T01:44:25;14.80;60.90
12874;DHT22;6505;51.114;13.128;2023-04-15T01:46:53;14.80;60.90
12874;DHT22;6505;51.114;13.128;2023-04-15T01:49:21;14.80;60.90
12874;DHT22;6505;51.114;13.128;2023-04-15T01:51:49;14.80;60.90
12874;DHT22;6505;51.114;13.128;2023-04-15T01:54:17;14.80;61.00
12874;DHT22;6505;51.114;13.128;2023-04-15T01:56:45;14.80;61.00
12874;DHT22;6505;51.114;13.128;2023-04-15T01:59:13;14.80;61.10
12874;DHT22;6505;51.114;13.128;2023-04-15T02:01:42;14.80;61.10
12874;DHT22;6505;51.114;13.128;2023-04-15T02:04:10;14.80;61.20
12874;DHT22;6505;51.114;13.128;2023-04-15T02:06:42;14.80;61.30
12874;DHT22;6505;51.114;13.128;2023-04-15T02:09:11;14.80;61.30
12874;DHT22;6505;51.114;13.128;2023-04-15T02:11:39;14.80;61.20
12874;DHT22;6505;51.114;13.128;2023-04-15T02:14:06;14.90;61.20
12874;DHT22;6505;51.114;13.128;2023-04-15T02:16:35;14.80;61.10
12874;DHT22;6505;51.114;13.128;2023-04-15T02:19:04;14.80;61.10
12874;DHT22;6505;51.114;13.128;2023-04-15T02:21:32;14.80;61.00
12874;DHT22;6505;51.114;13.128;2023-04-15T02:24:00;14.80;61.00
12874;DHT22;6505;51.114;13.128;2023-04-15T02:26:29;14.80;61.00
12874;DHT22;6505;51.114;13.128;2023-04-15T02:28:59;14.80;61.20
12874;DHT22;6505;51.114;13.128;2023-04-15T02:31:27;14.80;61.30
12874;DHT22;6505;51.114;13.128;2023-04-15T02:33:55;14.80;61.30
12874;DHT22;6505;51.114;13.128;2023-04-15T02:36:24;14.80;61.30
12874;DHT22;6505;51.114;13.128;2023-04-15T02:38:52;14.80;62.10
12874;DHT22;6505;51.114;13.128;2023-04-15T02:41:21;14.80;61.20
12874;DHT22;6505;51.114;13.128;2023-04-15T02:43:52;14.80;61.30
12874;DHT22;6505;51.114;13.128;2023-04-15T02:46:20;14.80;61.40
12874;DHT22;6505;51.114;13.128;2023-04-15T02:48:49;14.80;61.50
12874;DHT22;6505;51.114;13.128;2023-04-15T02:51:20;14.80;61.70
12874;DHT22;6505;51.114;13.128;2023-04-15T02:53:50;14.80;61.10
12874;DHT22;6505;51.114;13.128;2023-04-15T02:56:18;14.80;61.60
12874;DHT22;6505;51.114;13.128;2023-04-15T02:58:46;14.80;61.40
12874;DHT22;6505;51.114;13.128;2023-04-15T03:01:16;14.80;61.60
12874;DHT22;6505;51.114;13.128;2023-04-15T03:03:44;14.70;61.50
12874;DHT22;6505;51.114;13.128;2023-04-15T03:06:12;14.80;61.50
12874;DHT22;6505;51.114;13.128;2023-04-15T03:08:40;14.80;61.40
12874;DHT22;6505;51.114;13.128;2023-04-15T03:11:13;14.80;61.60
12874;DHT22;6505;51.114;13.128;2023-04-15T03:13:42;14.80;61.80
12874;DHT22;6505;51.114;13.128;2023-04-15T03:16:21;14.80;61.60
12874;DHT22;6505;51.114;13.128;2023-04-15T03:18:49;14.80;61.50
12874;DHT22;6505;51.114;13.128;2023-04-15T03:21:18;14.80;61.50
12874;DHT22;6505;51.114;13.128;2023-04-15T03:23:47;14.80;61.50
12874;DHT22;6505;51.114;13.128;2023-04-15T03:26:27;14.80;61.50
12874;DHT22;6505;51.114;13.128;2023-04-15T03:28:59;14.80;61.80
12874;DHT22;6505;51.114;13.128;2023-04-15T03:31:28;14.80;61.50
12874;DHT22;6505;51.114;13.128;2023-04-15T03:33:56;14.80;61.60
12874;DHT22;6505;51.114;13.128;2023-04-15T03:36:24;14.80;61.60
12874;DHT22;6505;51.114;13.128;2023-04-15T03:38:52;14.80;61.50
12874;DHT22;6505;51.114;13.128;2023-04-15T03:41:21;14.80;61.50
12874;DHT22;6505;51.114;13.128;2023-04-15T03:43:50;14.80;61.50
12874;DHT22;6505;51.114;13.128;2023-04-15T03:46:19;14.80;61.50
12874;DHT22;6505;51.114;13.128;2023-04-15T03:48:47;14.80;61.60
12874;DHT22;6505;51.114;13.128;2023-04-15T03:51:15;14.80;61.60
12874;DHT22;6505;51.114;13.128;2023-04-15T03:53:42;14.80;61.60
12874;DHT22;6505;51.114;13.128;2023-04-15T03:56:10;14.80;61.70
12874;DHT22;6505;51.114;13.128;2023-04-15T03:58:38;14.80;61.60
12874;DHT22;6505;51.114;13.128;2023-04-15T04:01:08;14.80;61.70
12874;DHT22;6505;51.114;13.128;2023-04-15T04:03:36;14.80;61.70
12874;DHT22;6505;51.114;13.128;2023-04-15T04:06:04;14.80;61.60
12874;DHT22;6505;51.114;13.128;2023-04-15T04:08:32;14.80;61.80
12874;DHT22;6505;51.114;13.128;2023-04-15T04:11:00;14.80;61.80
12874;DHT22;6505;51.114;13.128;2023-04-15T04:13:28;14.80;61.90
12874;DHT22;6505;51.114;13.128;2023-04-15T04:15:56;14.80;61.80
12874;DHT22;6505;51.114;13.128;2023-04-15T04:18:26;14.80;61.80
12874;DHT22;6505;51.114;13.128;2023-04-15T04:20:54;14.80;61.90
12874;DHT22;6505;51.114;13.128;2023-04-15T04:23:22;14.80;61.90
12874;DHT22;6505;51.114;13.128;2023-04-15T04:25:50;14.70;61.80
12874;DHT22;6505;51.114;13.128;2023-04-15T04:28:18;14.80;61.90
12874;DHT22;6505;51.114;13.128;2023-04-15T04:30:46;14.80;62.00
12874;DHT22;6505;51.114;13.128;2023-04-15T04:33:14;14.80;61.90
12874;DHT22;6505;51.114;13.128;2023-04-15T04:35:43;14.80;62.00
12874;DHT22;6505;51.114;13.128;2023-04-15T04:38:11;14.80;62.70
12874;DHT22;6505;51.114;13.128;2023-04-15T04:40:39;14.80;62.00
12874;DHT22;6505;51.114;13.128;2023-04-15T04:43:07;14.80;61.90
12874;DHT22;6505;51.114;13.128;2023-04-15T04:45:35;14.80;62.00
12874;DHT22;6505;51.114;13.128;2023-04-15T04:48:03;14.80;62.80
12874;DHT22;6505;51.114;13.128;2023-04-15T04:50:33;14.70;62.10
12874;DHT22;6505;51.114;13.128;2023-04-15T04:53:02;14.80;62.20
12874;DHT22;6505;51.114;13.128;2023-04-15T04:55:30;14.80;62.20
12874;DHT22;6505;51.114;13.128;2023-04-15T04:57:58;14.70;62.00
12874;DHT22;6505;51.114;13.128;2023-04-15T05:04:27;14.80;62.20
12874;DHT22;6505;51.114;13.128;2023-04-15T05:06:56;14.80;61.90
12874;DHT22;6505;51.114;13.128;2023-04-15T05:09:26;14.80;61.90
12874;DHT22;6505;51.114;13.128;2023-04-15T05:11:54;14.80;62.20
12874;DHT22;6505;51.114;13.128;2023-04-15T05:14:22;14.70;62.10
12874;DHT22;6505;51.114;13.128;2023-04-15T05:16:50;14.70;62.20
12874;DHT22;6505;51.114;13.128;2023-04-15T05:19:18;14.80;62.30
12874;DHT22;6505;51.114;13.128;2023-04-15T05:21:46;14.80;62.40
12874;DHT22;6505;51.114;13.128;2023-04-15T05:24:14;14.70;62.20
12874;DHT22;6505;51.114;13.128;2023-04-15T05:26:45;14.80;62.40
12874;DHT22;6505;51.114;13.128;2023-04-15T05:29:12;14.80;62.50
12874;DHT22;6505;51.114;13.128;2023-04-15T05:31:40;14.70;62.30
12874;DHT22;6505;51.114;13.128;2023-04-15T05:34:09;14.80;62.50
12874;DHT22;6505;51.114;13.128;2023-04-15T05:36:38;14.70;62.50
12874;DHT22;6505;51.114;13.128;2023-04-15T05:39:06;14.80;62.60
12874;DHT22;6505;51.114;13.128;2023-04-15T05:41:34;14.70;62.50
12874;DHT22;6505;51.114;13.128;2023-04-15T05:44:05;14.80;62.60
12874;DHT22;6505;51.114;13.128;2023-04-15T05:46:32;14.70;62.60
12874;DHT22;6505;51.114;13.128;2023-04-15T05:49:00;14.70;62.50
12874;DHT22;6505;51.114;13.128;2023-04-15T05:51:29;14.80;62.70
12874;DHT22;6505;51.114;13.128;2023-04-15T05:53:56;14.70;62.60
12874;DHT22;6505;51.114;13.128;2023-04-15T05:56:24;14.80;62.70
12874;DHT22;6505;51.114;13.128;2023-04-15T05:58:52;14.80;62.80
12874;DHT22;6505;51.114;13.128;2023-04-15T06:01:21;14.80;62.80
12874;DHT22;6505;51.114;13.128;2023-04-15T06:03:49;14.80;62.70
12874;DHT22;6505;51.114;13.128;2023-04-15T06:06:17;14.80;63.10
12874;DHT22;6505;51.114;13.128;2023-04-15T06:08:45;14.80;63.20
12874;DHT22;6505;51.114;13.128;2023-04-15T06:11:13;14.80;63.20
12874;DHT22;6505;51.114;13.128;2023-04-15T06:13:41;14.80;63.20
12874;DHT22;6505;51.114;13.128;2023-04-15T06:16:09;14.80;63.10
12874;DHT22;6505;51.114;13.128;2023-04-15T06:18:38;14.80;63.20
12874;DHT22;6505;51.114;13.128;2023-04-15T06:21:06;14.80;63.20
12874;DHT22;6505;51.114;13.128;2023-04-15T06:23:35;14.80;63.20
12874;DHT22;6505;51.114;13.128;2023-04-15T06:26:06;14.80;63.20
12874;DHT22;6505;51.114;13.128;2023-04-15T06:28:34;14.80;63.20
12874;DHT22;6505;51.114;13.128;2023-04-15T06:31:02;14.80;63.30
12874;DHT22;6505;51.114;13.128;2023-04-15T06:33:30;14.80;63.40
12874;DHT22;6505;51.114;13.128;2023-04-15T06:36:00;14.70;63.30
12874;DHT22;6505;51.114;13.128;2023-04-15T06:38:28;14.80;63.50
12874;DHT22;6505;51.114;13.128;2023-04-15T06:40:55;14.80;63.50
12874;DHT22;6505;51.114;13.128;2023-04-15T06:43:23;14.80;63.50
12874;DHT22;6505;51.114;13.128;2023-04-15T06:45:51;14.80;63.70
12874;DHT22;6505;51.114;13.128;2023-04-15T06:48:19;14.80;63.70
12874;DHT22;6505;51.114;13.128;2023-04-15T06:50:48;14.80;64.50
12874;DHT22;6505;51.114;13.128;2023-04-15T06:53:17;14.80;64.60
12874;DHT22;6505;51.114;13.128;2023-04-15T06:55:45;14.90;64.00
12874;DHT22;6505;51.114;13.128;2023-04-15T06:58:13;14.80;63.90
12874;DHT22;6505;51.114;13.128;2023-04-15T07:00:41;14.80;64.00
12874;DHT22;6505;51.114;13.128;2023-04-15T07:03:11;14.90;65.00
12874;DHT22;6505;51.114;13.128;2023-04-15T07:05:39;14.90;66.10
12874;DHT22;6505;51.114;13.128;2023-04-15T07:08:07;14.90;67.20
12874;DHT22;6505;51.114;13.128;2023-04-15T07:10:37;14.80;66.40
12874;DHT22;6505;51.114;13.128;2023-04-15T07:13:05;14.90;66.40
12874;DHT22;6505;51.114;13.128;2023-04-15T07:15:34;14.90;66.10
12874;DHT22;6505;51.114;13.128;2023-04-15T07:18:02;14.90;65.80
12874;DHT22;6505;51.114;13.128;2023-04-15T07:20:30;14.90;65.40
12874;DHT22;6505;51.114;13.128;2023-04-15T07:22:58;14.90;64.90
12874;DHT22;6505;51.114;13.128;2023-04-15T07:25:26;14.90;65.30
12874;DHT22;6505;51.114;13.128;2023-04-15T07:27:55;14.90;65.10
12874;DHT22;6505;51.114;13.128;2023-04-15T07:30:23;14.90;64.90
12874;DHT22;6505;51.114;13.128;2023-04-15T07:32:51;14.90;64.90
12874;DHT22;6505;51.114;13.128;2023-04-15T07:35:19;14.90;64.80
12874;DHT22;6505;51.114;13.128;2023-04-15T07:37:47;14.90;64.70
12874;DHT22;6505;51.114;13.128;2023-04-15T07:40:15;14.90;64.70
12874;DHT22;6505;51.114;13.128;2023-04-15T07:42:43;14.90;64.80
12874;DHT22;6505;51.114;13.128;2023-04-15T07:45:14;15.00;65.10
12874;DHT22;6505;51.114;13.128;2023-04-15T07:47:42;14.90;65.00
12874;DHT22;6505;51.114;13.128;2023-04-15T07:50:10;15.00;65.00
12874;DHT22;6505;51.114;13.128;2023-04-15T07:52:38;14.90;64.80
12874;DHT22;6505;51.114;13.128;2023-04-15T07:55:07;15.00;65.10
12874;DHT22;6505;51.114;13.128;2023-04-15T07:57:36;15.00;65.20
12874;DHT22;6505;51.114;13.128;2023-04-15T08:00:04;15.00;65.10
12874;DHT22;6505;51.114;13.128;2023-04-15T08:02:41;15.00;65.20
12874;DHT22;6505;51.114;13.128;2023-04-15T08:05:09;15.00;65.00
12874;DHT22;6505;51.114;13.128;2023-04-15T08:07:38;15.00;65.10
12874;DHT22;6505;51.114;13.128;2023-04-15T08:10:07;15.00;65.30
12874;DHT22;6505;51.114;13.128;2023-04-15T08:12:35;15.10;65.40
12874;DHT22;6505;51.114;13.128;2023-04-15T08:15:04;15.10;65.30
12874;DHT22;6505;51.114;13.128;2023-04-15T08:17:33;15.10;65.40
12874;DHT22;6505;51.114;13.128;2023-04-15T08:20:03;15.10;65.30
12874;DHT22;6505;51.114;13.128;2023-04-15T08:22:32;15.10;65.50
12874;DHT22;6505;51.114;13.128;2023-04-15T08:25:00;15.10;65.40
12874;DHT22;6505;51.114;13.128;2023-04-15T08:27:29;15.20;65.40
12874;DHT22;6505;51.114;13.128;2023-04-15T08:29:57;15.20;65.50
12874;DHT22;6505;51.114;13.128;2023-04-15T08:32:25;15.20;65.50
12874;DHT22;6505;51.114;13.128;2023-04-15T08:34:53;15.20;65.50
12874;DHT22;6505;51.114;13.128;2023-04-15T08:37:22;15.20;65.50
12874;DHT22;6505;51.114;13.128;2023-04-15T08:39:50;15.20;65.20
12874;DHT22;6505;51.114;13.128;2023-04-15T08:42:22;15.20;65.40
12874;DHT22;6505;51.114;13.128;2023-04-15T08:44:54;15.20;64.90
12874;DHT22;6505;51.114;13.128;2023-04-15T08:47:23;15.20;65.50
12874;DHT22;6505;51.114;13.128;2023-04-15T08:49:56;15.20;65.60
12874;DHT22;6505;51.114;13.128;2023-04-15T08:52:26;15.30;65.90
12874;DHT22;6505;51.114;13.128;2023-04-15T08:54:57;15.30;65.90
12874;DHT22;6505;51.114;13.128;2023-04-15T08:57:27;15.30;66.10
12874;DHT22;6505;51.114;13.128;2023-04-15T08:59:56;15.30;66.10
12874;DHT22;6505;51.114;13.128;2023-04-15T09:02:24;15.30;66.00
12874;DHT22;6505;51.114;13.128;2023-04-15T09:04:53;15.40;66.10
12874;DHT22;6505;51.114;13.128;2023-04-15T09:07:22;15.30;65.70
12874;DHT22;6505;51.114;13.128;2023-04-15T09:09:51;15.30;65.70
12874;DHT22;6505;51.114;13.128;2023-04-15T09:12:19;15.30;65.60
12874;DHT22;6505;51.114;13.128;2023-04-15T09:14:47;15.40;65.60
12874;DHT22;6505;51.114;13.128;2023-04-15T09:17:18;15.40;65.40
12874;DHT22;6505;51.114;13.128;2023-04-15T09:19:48;15.40;65.80
12874;DHT22;6505;51.114;13.128;2023-04-15T09:22:15;15.40;65.90
12874;DHT22;6505;51.114;13.128;2023-04-15T09:24:43;15.40;65.90
12874;DHT22;6505;51.114;13.128;2023-04-15T09:27:15;15.40;65.90
12874;DHT22;6505;51.114;13.128;2023-04-15T09:29:43;15.40;66.10
12874;DHT22;6505;51.114;13.128;2023-04-15T09:32:12;15.40;65.90
12874;DHT22;6505;51.114;13.128;2023-04-15T09:34:41;15.40;66.10
12874;DHT22;6505;51.114;13.128;2023-04-15T09:37:10;15.40;66.00
12874;DHT22;6505;51.114;13.128;2023-04-15T09:39:57;15.50;65.90
12874;DHT22;6505;51.114;13.128;2023-04-15T09:42:26;15.50;65.80
12874;DHT22;6505;51.114;13.128;2023-04-15T09:44:54;15.50;66.00
12874;DHT22;6505;51.114;13.128;2023-04-15T09:47:28;15.50;66.00
12874;DHT22;6505;51.114;13.128;2023-04-15T09:49:58;15.50;66.30
12874;DHT22;6505;51.114;13.128;2023-04-15T09:52:28;15.50;66.20
12874;DHT22;6505;51.114;13.128;2023-04-15T09:54:57;15.50;66.20
12874;DHT22;6505;51.114;13.128;2023-04-15T09:57:34;15.50;66.30
12874;DHT22;6505;51.114;13.128;2023-04-15T10:00:03;15.60;66.20
12874;DHT22;6505;51.114;13.128;2023-04-15T10:02:34;15.60;66.10
12874;DHT22;6505;51.114;13.128;2023-04-15T10:05:04;15.60;66.10
12874;DHT22;6505;51.114;13.128;2023-04-15T10:07:34;15.60;66.20
12874;DHT22;6505;51.114;13.128;2023-04-15T10:10:02;15.60;66.20
12874;DHT22;6505;51.114;13.128;2023-04-15T10:12:33;15.70;66.30
12874;DHT22;6505;51.114;13.128;2023-04-15T10:15:04;15.70;66.30
12874;DHT22;6505;51.114;13.128;2023-04-15T10:17:35;15.70;66.40
12874;DHT22;6505;51.114;13.128;2023-04-15T10:20:04;15.70;66.50
12874;DHT22;6505;51.114;13.128;2023-04-15T10:22:35;15.80;66.50
12874;DHT22;6505;51.114;13.128;2023-04-15T10:25:05;15.80;66.40
12874;DHT22;6505;51.114;13.128;2023-04-15T10:27:35;15.80;66.10
12874;DHT22;6505;51.114;13.128;2023-04-15T10:30:05;15.90;66.60
12874;DHT22;6505;51.114;13.128;2023-04-15T10:32:35;15.90;67.30
12874;DHT22;6505;51.114;13.128;2023-04-15T10:35:04;15.90;66.90
12874;DHT22;6505;51.114;13.128;2023-04-15T10:37:36;15.90;66.50
12874;DHT22;6505;51.114;13.128;2023-04-15T10:40:23;15.90;66.20
12874;DHT22;6505;51.114;13.128;2023-04-15T10:42:56;16.00;66.30
12874;DHT22;6505;51.114;13.128;2023-04-15T10:45:26;16.00;66.20
12874;DHT22;6505;51.114;13.128;2023-04-15T10:47:56;16.00;66.10
12874;DHT22;6505;51.114;13.128;2023-04-15T10:50:26;15.90;65.90
12874;DHT22;6505;51.114;13.128;2023-04-15T10:52:56;16.00;66.00
12874;DHT22;6505;51.114;13.128;2023-04-15T10:55:25;16.00;65.80
12874;DHT22;6505;51.114;13.128;2023-04-15T10:57:58;16.00;66.00
12874;DHT22;6505;51.114;13.128;2023-04-15T11:00:29;16.00;66.30
12874;DHT22;6505;51.114;13.128;2023-04-15T11:02:58;16.00;66.30
12874;DHT22;6505;51.114;13.128;2023-04-15T11:05:49;16.00;66.30
12874;DHT22;6505;51.114;13.128;2023-04-15T11:08:19;16.00;66.30
12874;DHT22;6505;51.114;13.128;2023-04-15T11:10:51;16.00;66.30
12874;DHT22;6505;51.114;13.128;2023-04-15T11:13:27;16.00;66.30
12874;DHT22;6505;51.114;13.128;2023-04-15T11:15:58;16.00;66.20
12874;DHT22;6505;51.114;13.128;2023-04-15T11:18:30;16.00;66.30
12874;DHT22;6505;51.114;13.128;2023-04-15T11:21:01;16.00;66.30
12874;DHT22;6505;51.114;13.128;2023-04-15T11:23:41;16.10;66.50
12874;DHT22;6505;51.114;13.128;2023-04-15T11:26:13;16.10;66.40
12874;DHT22;6505;51.114;13.128;2023-04-15T11:28:43;16.10;66.10
12874;DHT22;6505;51.114;13.128;2023-04-15T11:31:13;16.10;66.30
12874;DHT22;6505;51.114;13.128;2023-04-15T11:33:46;16.10;66.40
12874;DHT22;6505;51.114;13.128;2023-04-15T11:36:22;16.10;66.50
12874;DHT22;6505;51.114;13.128;2023-04-15T11:38:52;16.10;66.50
12874;DHT22;6505;51.114;13.128;2023-04-15T11:41:21;16.10;66.20
12874;DHT22;6505;51.114;13.128;2023-04-15T11:43:51;16.10;66.70
12874;DHT22;6505;51.114;13.128;2023-04-15T11:46:20;16.20;66.80
12874;DHT22;6505;51.114;13.128;2023-04-15T11:48:48;16.10;66.80
12874;DHT22;6505;51.114;13.128;2023-04-15T11:51:16;16.20;66.90
12874;DHT22;6505;51.114;13.128;2023-04-15T11:53:48;16.20;66.80
12874;DHT22;6505;51.114;13.128;2023-04-15T11:56:19;16.20;67.20
12874;DHT22;6505;51.114;13.128;2023-04-15T11:58:51;16.20;66.90
12874;DHT22;6505;51.114;13.128;2023-04-15T12:01:30;16.30;66.60
12874;DHT22;6505;51.114;13.128;2023-04-15T12:03:58;16.30;66.60
12874;DHT22;6505;51.114;13.128;2023-04-15T12:06:31;16.30;66.50
12874;DHT22;6505;51.114;13.128;2023-04-15T12:09:09;16.30;66.40
12874;DHT22;6505;51.114;13.128;2023-04-15T12:11:44;16.30;66.10
12874;DHT22;6505;51.114;13.128;2023-04-15T12:14:23;16.30;65.90
12874;DHT22;6505;51.114;13.128;2023-04-15T12:16:53;16.40;65.70
12874;DHT22;6505;51.114;13.128;2023-04-15T12:19:25;16.40;66.00
12874;DHT22;6505;51.114;13.128;2023-04-15T12:21:57;16.40;66.00
12874;DHT22;6505;51.114;13.128;2023-04-15T12:24:28;16.40;66.80
12874;DHT22;6505;51.114;13.128;2023-04-15T12:27:01;16.50;66.30
12874;DHT22;6505;51.114;13.128;2023-04-15T12:29:32;16.40;66.30
12874;DHT22;6505;51.114;13.128;2023-04-15T12:32:05;16.40;66.30
12874;DHT22;6505;51.114;13.128;2023-04-15T12:34:35;16.40;66.30
12874;DHT22;6505;51.114;13.128;2023-04-15T12:37:05;16.50;66.20
12874;DHT22;6505;51.114;13.128;2023-04-15T12:39:35;16.50;65.60
12874;DHT22;6505;51.114;13.128;2023-04-15T12:42:05;16.50;65.90
12874;DHT22;6505;51.114;13.128;2023-04-15T12:44:36;16.60;65.90
12874;DHT22;6505;51.114;13.128;2023-04-15T12:47:08;16.60;65.80
12874;DHT22;6505;51.114;13.128;2023-04-15T12:49:37;16.60;65.80
12874;DHT22;6505;51.114;13.128;2023-04-15T12:52:06;16.60;65.90
12874;DHT22;6505;51.114;13.128;2023-04-15T12:54:34;16.60;65.90
12874;DHT22;6505;51.114;13.128;2023-04-15T12:57:02;16.70;66.00
12874;DHT22;6505;51.114;13.128;2023-04-15T12:59:34;16.60;65.70
12874;DHT22;6505;51.114;13.128;2023-04-15T13:02:03;16.60;65.50
12874;DHT22;6505;51.114;13.128;2023-04-15T13:04:31;16.70;65.40
12874;DHT22;6505;51.114;13.128;2023-04-15T13:07:00;16.70;65.20
12874;DHT22;6505;51.114;13.128;2023-04-15T13:09:28;16.70;65.50
12874;DHT22;6505;51.114;13.128;2023-04-15T13:11:56;16.70;65.20
12874;DHT22;6505;51.114;13.128;2023-04-15T13:14:24;16.70;64.80
12874;DHT22;6505;51.114;13.128;2023-04-15T13:16:54;16.80;64.20
12874;DHT22;6505;51.114;13.128;2023-04-15T13:19:23;16.80;64.50
12874;DHT22;6505;51.114;13.128;2023-04-15T13:21:51;16.70;63.40
12874;DHT22;6505;51.114;13.128;2023-04-15T13:24:19;16.80;64.00
12874;DHT22;6505;51.114;13.128;2023-04-15T13:26:47;16.80;64.10
12874;DHT22;6505;51.114;13.128;2023-04-15T13:29:16;16.80;65.00
12874;DHT22;6505;51.114;13.128;2023-04-15T13:31:44;16.80;64.20
12874;DHT22;6505;51.114;13.128;2023-04-15T13:34:13;16.80;64.30
12874;DHT22;6505;51.114;13.128;2023-04-15T13:36:41;16.80;64.80
12874;DHT22;6505;51.114;13.128;2023-04-15T13:39:09;16.80;65.20
12874;DHT22;6505;51.114;13.128;2023-04-15T13:41:36;16.80;64.80
12874;DHT22;6505;51.114;13.128;2023-04-15T13:44:04;16.80;64.70
12874;DHT22;6505;51.114;13.128;2023-04-15T13:46:32;16.80;64.40
12874;DHT22;6505;51.114;13.128;2023-04-15T13:49:01;16.80;64.40
12874;DHT22;6505;51.114;13.128;2023-04-15T13:51:30;16.80;65.10
12874;DHT22;6505;51.114;13.128;2023-04-15T13:53:58;16.80;64.60
12874;DHT22;6505;51.114;13.128;2023-04-15T13:56:26;16.80;64.60
12874;DHT22;6505;51.114;13.128;2023-04-15T13:58:57;16.90;64.40
12874;DHT22;6505;51.114;13.128;2023-04-15T14:01:27;16.80;64.60
12874;DHT22;6505;51.114;13.128;2023-04-15T14:03:56;16.80;64.90
12874;DHT22;6505;51.114;13.128;2023-04-15T14:06:24;16.90;65.10
12874;DHT22;6505;51.114;13.128;2023-04-15T14:08:54;16.90;65.00
12874;DHT22;6505;51.114;13.128;2023-04-15T14:11:22;16.90;64.70
12874;DHT22;6505;51.114;13.128;2023-04-15T14:13:50;16.90;64.50
12874;DHT22;6505;51.114;13.128;2023-04-15T14:16:17;16.90;64.60
12874;DHT22;6505;51.114;13.128;2023-04-15T14:18:45;16.90;64.50
12874;DHT22;6505;51.114;13.128;2023-04-15T14:21:13;16.90;64.50
12874;DHT22;6505;51.114;13.128;2023-04-15T14:23:41;16.90;64.70
12874;DHT22;6505;51.114;13.128;2023-04-15T14:26:11;16.90;64.40
12874;DHT22;6505;51.114;13.128;2023-04-15T14:28:40;16.90;63.90
12874;DHT22;6505;51.114;13.128;2023-04-15T14:31:10;16.90;63.60
12874;DHT22;6505;51.114;13.128;2023-04-15T14:33:39;16.80;63.60
12874;DHT22;6505;51.114;13.128;2023-04-15T14:36:07;16.80;63.20
12874;DHT22;6505;51.114;13.128;2023-04-15T14:38:36;16.80;63.30
12874;DHT22;6505;51.114;13.128;2023-04-15T14:41:05;16.90;62.90
12874;DHT22;6505;51.114;13.128;2023-04-15T14:43:35;16.80;62.60
12874;DHT22;6505;51.114;13.128;2023-04-15T14:46:04;16.90;62.90
12874;DHT22;6505;51.114;13.128;2023-04-15T14:48:34;16.80;62.70
12874;DHT22;6505;51.114;13.128;2023-04-15T14:51:02;16.80;62.50
12874;DHT22;6505;51.114;13.128;2023-04-15T14:53:30;16.80;62.80
12874;DHT22;6505;51.114;13.128;2023-04-15T14:55:58;16.80;62.90
12874;DHT22;6505;51.114;13.128;2023-04-15T14:58:26;16.80;63.00
12874;DHT22;6505;51.114;13.128;2023-04-15T15:00:55;16.80;63.40
12874;DHT22;6505;51.114;13.128;2023-04-15T15:03:23;16.80;63.40
12874;DHT22;6505;51.114;13.128;2023-04-15T15:05:51;16.80;63.30
12874;DHT22;6505;51.114;13.128;2023-04-15T15:08:19;16.80;63.20
12874;DHT22;6505;51.114;13.128;2023-04-15T15:10:47;16.80;63.10
12874;DHT22;6505;51.114;13.128;2023-04-15T15:13:16;16.80;63.20
12874;DHT22;6505;51.114;13.128;2023-04-15T15:15:45;16.80;63.60
12874;DHT22;6505;51.114;13.128;2023-04-15T15:18:16;16.80;63.70
12874;DHT22;6505;51.114;13.128;2023-04-15T15:20:45;16.80;63.80
12874;DHT22;6505;51.114;13.128;2023-04-15T15:23:13;16.70;63.80
12874;DHT22;6505;51.114;13.128;2023-04-15T15:25:42;16.70;63.80
12874;DHT22;6505;51.114;13.128;2023-04-15T15:28:10;16.70;64.00
12874;DHT22;6505;51.114;13.128;2023-04-15T15:30:38;16.80;64.20
12874;DHT22;6505;51.114;13.128;2023-04-15T15:33:06;16.70;64.20
12874;DHT22;6505;51.114;13.128;2023-04-15T15:35:35;16.70;64.10
12874;DHT22;6505;51.114;13.128;2023-04-15T15:38:03;16.80;64.00
12874;DHT22;6505;51.114;13.128;2023-04-15T15:40:32;16.70;64.20
12874;DHT22;6505;51.114;13.128;2023-04-15T15:43:00;16.70;64.20
12874;DHT22;6505;51.114;13.128;2023-04-15T15:45:27;16.70;64.20